Time;durP1;ratioP1;P1;durP2;ratioP2;P2;SDS_P1;SDS_P2;PMS_P1;PMS_P2;Temp;Humidity;BMP_temperature;BMP_pressure;BME280_temperature;BME280_humidity;BME280_pressure;Samples;Min_cycle;Max_cycle;Signal;HPM_P1;HPM_P2
2021/05/10 00:03:19;;;;;;;2.20;0.70;;;17.70;99.90;;;;;;20611729;28;20350;-73
2021/05/10 00:13:25;;;;;;;4.37;0.90;;;17.60;99.90;;;;;;20610476;28;20270;-73
2021/05/10 00:23:27;;;;;;;2.73;1.50;;;17.50;99.90;;;;;;20595579;28;20328;-73
2021/05/10 00:33:31;;;;;;;2.27;1.13;;;17.40;99.90;;;;;;20613957;28;20223;-72
2021/05/10 00:43:33;;;;;;;0.30;0.27;;;17.30;99.90;;;;;;20610973;28;20192;-73
2021/05/10 00:53:37;;;;;;;1.23;1.07;;;17.30;99.90;;;;;;20613509;28;20230;-73
2021/05/10 01:03:40;;;;;;;2.33;2.13;;;17.60;99.90;;;;;;20612017;28;20231;-73
2021/05/10 01:13:44;;;;;;;0.60;0.60;;;17.70;99.90;;;;;;20610495;28;20254;-72
2021/05/10 01:23:48;;;;;;;0.60;0.60;;;17.40;99.90;;;;;;20604805;28;20720;-72
2021/05/10 01:33:51;;;;;;;20.70;0.73;;;17.30;99.90;;;;;;20610393;28;20215;-71
2021/05/10 01:43:54;;;;;;;0.20;0.00;;;17.30;99.90;;;;;;20624120;28;20206;-71
2021/05/10 01:53:57;;;;;;;0.57;0.20;;;17.10;99.90;;;;;;20625537;28;20263;-71
2021/05/10 02:04:00;;;;;;;0.20;0.13;;;17.40;99.90;;;;;;20622311;28;20215;-72
2021/05/10 02:14:03;;;;;;;0.67;0.67;;;17.30;99.90;;;;;;20622017;28;20265;-72
2021/05/10 02:24:08;;;;;;;0.60;0.60;;;17.30;99.90;;;;;;20622605;28;20196;-72
2021/05/10 02:34:11;;;;;;;3.90;1.27;;;17.40;99.90;;;;;;20606244;28;20919;-73
2021/05/10 02:44:14;;;;;;;0.20;0.17;;;17.20;99.90;;;;;;20604124;28;20207;-73
2021/05/10 02:54:17;;;;;;;1.47;0.90;;;17.20;99.90;;;;;;20619598;28;20219;-73
2021/05/10 03:04:20;;;;;;;1.80;0.70;;;17.10;99.90;;;;;;20619385;28;20219;-73
2021/05/10 03:14:23;;;;;;;0.90;0.70;;;17.00;99.90;;;;;;20617640;28;20231;-73
2021/05/10 03:24:26;;;;;;;1.17;0.57;;;16.90;99.90;;;;;;20617652;28;20563;-73
2021/05/10 03:34:29;;;;;;;0.70;0.63;;;16.80;99.90;;;;;;20617427;28;20223;-74
2021/05/10 03:44:33;;;;;;;0.30;0.30;;;16.50;99.90;;;;;;20616314;28;20258;-72
2021/05/10 03:54:35;;;;;;;0.20;0.03;;;16.30;99.90;;;;;;20614398;28;20227;-72
2021/05/10 04:04:41;;;;;;;0.30;0.23;;;16.30;99.90;;;;;;20598407;28;20239;-72
2021/05/10 04:14:44;;;;;;;1.40;1.30;;;16.30;99.90;;;;;;20614934;28;20579;-72
2021/05/10 04:24:48;;;;;;;0.20;0.10;;;16.30;99.90;;;;;;20614716;28;20192;-72
2021/05/10 04:34:51;;;;;;;0.20;0.13;;;16.30;99.90;;;;;;20596039;28;20219;-73
2021/05/10 04:44:55;;;;;;;0.47;0.33;;;16.30;99.90;;;;;;20611844;28;20677;-73
2021/05/10 04:54:57;;;;;;;0.57;0.40;;;16.30;99.90;;;;;;20600964;28;20231;-72
2021/05/10 05:05:01;;;;;;;0.30;0.30;;;16.40;99.90;;;;;;20627085;28;20238;-72
2021/05/10 05:15:04;;;;;;;0.40;0.40;;;16.40;99.90;;;;;;20624493;28;20226;-73
2021/05/10 05:25:09;;;;;;;0.50;0.37;;;16.50;99.90;;;;;;20624908;28;20672;-73
2021/05/10 05:35:13;;;;;;;0.73;0.40;;;16.80;99.90;;;;;;20605246;28;20226;-73
2021/05/10 05:45:17;;;;;;;1.63;0.83;;;17.10;99.90;;;;;;20624897;28;20195;-71
2021/05/10 05:55:20;;;;;;;1.13;1.03;;;17.00;99.90;;;;;;20623330;28;20231;-74
2021/05/10 06:05:23;;;;;;;0.30;0.30;;;17.20;99.90;;;;;;20621945;28;20310;-73
2021/05/10 06:15:26;;;;;;;11.43;1.73;;;17.60;99.90;;;;;;20621065;28;20230;-72
2021/05/10 06:25:30;;;;;;;0.53;0.53;;;17.70;99.90;;;;;;20621869;28;20195;-72
2021/05/10 06:35:33;;;;;;;6.83;1.20;;;17.80;99.90;;;;;;20617427;28;20231;-71
2021/05/10 06:45:37;;;;;;;16.73;0.70;;;17.80;99.90;;;;;;20599322;28;20200;-71
2021/05/10 06:55:40;;;;;;;0.30;0.30;;;17.90;99.90;;;;;;20612516;28;20304;-73
2021/05/10 07:05:47;;;;;;;1.37;1.07;;;17.90;99.90;;;;;;20612776;28;20238;-71
2021/05/10 07:15:50;;;;;;;0.60;0.47;;;18.10;99.90;;;;;;20610879;28;20235;-75
2021/05/10 07:25:53;;;;;;;1.10;1.00;;;18.40;99.90;;;;;;20596329;28;20531;-72
2021/05/10 07:35:56;;;;;;;6.03;1.53;;;18.40;99.90;;;;;;20614281;28;20227;-72
2021/05/10 07:45:59;;;;;;;6.23;0.73;;;18.30;99.90;;;;;;20614439;28;20290;-73
2021/05/10 07:56:02;;;;;;;0.40;0.40;;;18.00;99.90;;;;;;20613465;28;20588;-74
2021/05/10 08:06:06;;;;;;;0.37;0.37;;;18.10;99.90;;;;;;20555851;28;20224;-73
2021/05/10 08:16:08;;;;;;;0.77;0.60;;;18.30;99.90;;;;;;20534436;28;20280;-71
2021/05/10 08:26:13;;;;;;;0.60;0.60;;;18.60;99.90;;;;;;20532324;28;20200;-71
2021/05/10 08:36:16;;;;;;;3.07;2.00;;;18.70;99.90;;;;;;20545227;28;20227;-73
2021/05/10 08:46:24;;;;;;;5.40;2.13;;;18.70;99.90;;;;;;20547589;28;20294;-71
2021/05/10 08:56:27;;;;;;;3.03;2.77;;;18.60;99.90;;;;;;20545582;28;20228;-73
2021/05/10 09:06:32;;;;;;;2.27;1.20;;;19.00;99.90;;;;;;20658657;28;20288;-74
2021/05/10 09:16:54;;;;;;;1.00;0.97;;;19.50;99.90;;;;;;21011059;27;20580;-73
2021/05/10 09:26:57;;;;;;;3.13;1.97;;;19.90;99.90;;;;;;21012858;28;20584;-71
2021/05/10 09:37:03;;;;;;;0.83;0.83;;;20.20;99.90;;;;;;21009739;28;20204;-69
2021/05/10 09:47:06;;;;;;;3.27;1.33;;;20.30;99.90;;;;;;21010960;28;20203;-72
2021/05/10 09:57:10;;;;;;;0.40;0.37;;;20.80;99.90;;;;;;21007600;28;20273;-77
2021/05/10 10:07:12;;;;;;;2.27;2.13;;;20.10;99.90;;;;;;21007632;28;20942;-70
2021/05/10 10:17:16;;;;;;;0.83;0.83;;;19.40;99.90;;;;;;21005806;28;20318;-74
2021/05/10 10:27:21;;;;;;;0.97;0.87;;;19.10;99.90;;;;;;20957745;28;21158;-73
2021/05/10 10:37:27;;;;;;;0.20;0.20;;;19.00;99.90;;;;;;20941260;28;20193;-72
2021/05/10 10:47:44;;;;;;;0.73;0.73;;;19.20;99.90;;;;;;20946505;28;20279;-76
2021/05/10 10:57:48;;;;;;;2.07;1.47;;;19.50;99.90;;;;;;20907893;28;20213;-73
2021/05/10 11:07:57;;;;;;;7.87;2.13;;;19.50;99.90;;;;;;20936975;28;20319;-71
2021/05/10 11:18:03;;;;;;;0.70;0.50;;;18.60;99.90;;;;;;20950140;28;20196;-77
2021/05/10 11:28:47;;;;;;;0.20;0.10;;;17.90;99.90;;;;;;20944480;28;20327;-76
2021/05/10 11:38:54;;;;;;;0.20;0.20;;;17.80;99.90;;;;;;20906197;28;20618;-76
2021/05/10 11:48:56;;;;;;;0.33;0.30;;;18.00;99.90;;;;;;20943165;28;20228;-76
2021/05/10 11:59:09;;;;;;;2.17;1.00;;;18.00;99.90;;;;;;20942931;28;20525;-76
2021/05/10 12:09:48;;;;;;;0.20;0.20;;;18.10;99.90;;;;;;20936921;28;20764;-74
2021/05/10 12:20:00;;;;;;;0.70;0.70;;;17.90;99.90;;;;;;20943008;28;20207;-73
2021/05/10 12:30:13;;;;;;;0.20;0.10;;;18.10;99.90;;;;;;20967878;28;20307;-75
2021/05/10 12:40:19;;;;;;;0.20;0.20;;;19.50;99.90;;;;;;20941961;28;20208;-78
2021/05/10 12:50:38;;;;;;;0.47;0.47;;;21.30;99.90;;;;;;20941794;28;20221;-74
2021/05/10 13:00:43;;;;;;;0.20;0.10;;;20.90;99.90;;;;;;20940408;28;20651;-73
2021/05/10 13:10:55;;;;;;;0.50;0.50;;;23.60;99.90;;;;;;20939995;28;20326;-74
2021/05/10 13:31:34;;;;;;;0.25;0.25;;;24.00;99.90;;;;;;20940442;28;20228;-73
2021/05/10 13:41:43;;;;;;;0.30;0.30;;;23.90;99.90;;;;;;20937336;28;20262;-72
2021/05/10 13:51:47;;;;;;;0.20;0.10;;;23.40;99.90;;;;;;20937220;28;20224;-73
2021/05/10 14:01:51;;;;;;;0.75;0.75;;;23.30;99.90;;;;;;20951115;28;20193;-73
2021/05/10 14:11:55;;;;;;;0.50;0.28;;;24.60;99.90;;;;;;20954591;28;20302;-72
2021/05/10 14:22:01;;;;;;;0.38;0.30;;;25.50;99.90;;;;;;20947042;28;20196;-72
2021/05/10 14:32:03;;;;;;;0.23;0.23;;;22.60;99.90;;;;;;20950923;28;20282;-75
2021/05/10 14:42:19;;;;;;;1.08;0.35;;;24.00;99.90;;;;;;20952352;28;20831;-78
2021/05/10 14:52:26;;;;;;;0.43;0.30;;;25.10;99.90;;;;;;20950162;28;20225;-73
2021/05/10 15:02:30;;;;;;;1.30;1.13;;;25.10;99.90;;;;;;20947661;28;20276;-72
2021/05/10 15:12:32;;;;;;;4.03;0.85;;;25.90;99.90;;;;;;20947203;28;20598;-72
2021/05/10 15:22:36;;;;;;;0.85;0.20;;;27.30;99.90;;;;;;20945118;28;20281;-73
2021/05/10 15:32:38;;;;;;;0.30;0.25;;;27.10;99.90;;;;;;20944055;28;20227;-73
2021/05/10 15:42:45;;;;;;;0.30;0.30;;;27.20;99.90;;;;;;20941126;28;20273;-71
2021/05/10 15:52:48;;;;;;;3.42;1.58;;;27.50;99.90;;;;;;20942025;28;21032;-71
2021/05/10 16:02:52;;;;;;;0.73;0.35;;;27.30;99.90;;;;;;20941213;28;20603;-72
2021/05/10 16:12:55;;;;;;;0.30;0.17;;;26.60;99.90;;;;;;20941371;28;20363;-73
2021/05/10 16:22:59;;;;;;;0.82;0.82;;;25.40;99.90;;;;;;20941182;28;20192;-72
2021/05/10 16:33:02;;;;;;;0.50;0.40;;;23.30;99.90;;;;;;20947201;28;20244;-72
2021/05/10 16:43:06;;;;;;;0.20;0.10;;;22.60;99.90;;;;;;20938992;28;20688;-72
2021/05/10 16:53:09;;;;;;;0.73;0.53;;;22.40;99.90;;;;;;20897412;28;20232;-73
2021/05/10 17:03:12;;;;;;;0.20;0.10;;;23.20;99.90;;;;;;20938634;28;20204;-72
2021/05/10 17:13:15;;;;;;;2.83;0.25;;;24.70;99.90;;;;;;20941217;28;20312;-71
2021/05/10 17:23:18;;;;;;;0.30;0.30;;;25.60;99.90;;;;;;20937104;28;20203;-72
2021/05/10 17:33:21;;;;;;;4.90;0.50;;;24.40;99.90;;;;;;20926626;28;20372;-74
2021/05/10 17:43:24;;;;;;;0.20;0.15;;;23.80;99.90;;;;;;20871920;28;20205;-74
2021/05/10 17:53:27;;;;;;;0.20;0.13;;;23.20;99.90;;;;;;20934164;28;20717;-76
2021/05/10 18:03:45;;;;;;;0.20;0.10;;;21.90;99.90;;;;;;20949486;28;20279;-73
2021/05/10 18:13:51;;;;;;;0.47;0.37;;;19.30;99.90;;;;;;20952164;28;20248;-74
2021/05/10 18:23:55;;;;;;;0.20;0.10;;;18.90;99.90;;;;;;20952404;28;20282;-76
2021/05/10 18:33:57;;;;;;;0.23;0.13;;;18.60;99.90;;;;;;20953064;28;20216;-74
2021/05/10 18:44:01;;;;;;;1.10;0.60;;;18.50;99.90;;;;;;20951819;28;20189;-73
2021/05/10 18:54:04;;;;;;;0.30;0.30;;;18.30;99.90;;;;;;20951031;28;20725;-73
2021/05/10 19:04:08;;;;;;;0.30;0.30;;;18.50;99.90;;;;;;20947993;28;20193;-73
2021/05/10 19:14:11;;;;;;;0.20;0.10;;;18.50;99.90;;;;;;20949326;28;20276;-74
2021/05/10 19:24:15;;;;;;;0.77;0.77;;;18.40;99.90;;;;;;20945867;28;20717;-74
2021/05/10 19:34:18;;;;;;;1.80;0.30;;;18.40;99.90;;;;;;20918628;28;20225;-74
2021/05/10 19:44:23;;;;;;;0.50;0.37;;;18.10;99.90;;;;;;20863237;28;20209;-77
2021/05/10 20:04:47;;;;;;;6.87;0.97;;;17.80;99.90;;;;;;20906491;28;20276;-73
2021/05/10 20:14:50;;;;;;;0.30;0.27;;;17.80;99.90;;;;;;20931346;28;20293;-74
2021/05/10 20:24:53;;;;;;;0.40;0.40;;;17.70;99.90;;;;;;20940035;28;20204;-73
2021/05/10 20:34:56;;;;;;;0.30;0.20;;;17.60;99.90;;;;;;20937928;28;20265;-75
2021/05/10 20:44:59;;;;;;;0.30;0.30;;;17.40;99.90;;;;;;20942267;28;20582;-75
2021/05/10 20:55:02;;;;;;;0.60;0.30;;;17.20;99.90;;;;;;20938944;28;20299;-74
2021/05/10 21:05:06;;;;;;;1.27;1.10;;;17.20;99.90;;;;;;20938276;28;20200;-75
2021/05/10 21:15:27;;;;;;;1.03;0.53;;;17.20;99.90;;;;;;20936726;28;20859;-75
2021/05/10 21:25:31;;;;;;;0.20;0.10;;;17.10;99.90;;;;;;20939198;28;20199;-75
2021/05/10 21:35:34;;;;;;;18.60;0.67;;;16.80;99.90;;;;;;20936648;28;20285;-75
2021/05/10 21:45:37;;;;;;;17.27;0.93;;;16.10;99.90;;;;;;20952297;28;20278;-72
2021/05/10 21:55:41;;;;;;;0.20;0.10;;;15.80;99.90;;;;;;20938110;28;20220;-75
2021/05/10 22:05:45;;;;;;;0.20;0.00;;;15.70;99.90;;;;;;20935968;28;20208;-75
2021/05/10 22:15:48;;;;;;;0.20;0.20;;;15.60;99.90;;;;;;20940025;28;20232;-75
2021/05/10 22:25:59;;;;;;;0.70;0.70;;;15.40;99.90;;;;;;20879690;28;20312;-73
2021/05/10 22:36:07;;;;;;;0.30;0.30;;;15.30;99.90;;;;;;20909299;28;20220;-74
2021/05/10 22:46:23;;;;;;;0.20;0.03;;;15.20;99.90;;;;;;20975964;28;20262;-74
2021/05/10 23:07:15;;;;;;;0.53;0.53;;;15.10;99.90;;;;;;20948520;28;21161;-74
2021/05/10 23:17:18;;;;;;;0.20;0.10;;;15.30;99.90;;;;;;20945302;28;20234;-74
2021/05/10 23:27:22;;;;;;;0.20;0.20;;;16.40;99.90;;;;;;20945441;28;20651;-74
2021/05/10 23:37:24;;;;;;;7.67;0.77;;;16.50;99.90;;;;;;20942874;28;20716;-75
2021/05/10 23:47:29;;;;;;;0.40;0.40;;;16.80;99.90;;;;;;20946324;28;20192;-74
2021/05/10 23:57:32;;;;;;;0.43;0.43;;;17.00;99.90;;;;;;20943706;28;20230;-77
